createdAt,value
2024-05-09T00:00:35.309Z,98671.64
2024-05-09T00:03:30.191Z,98665.30
2024-05-09T00:06:00.388Z,98661.73
2024-05-09T00:08:31.786Z,98665.40
2024-05-09T00:11:03.269Z,98667.54
2024-05-09T00:13:34.435Z,98669.63
2024-05-09T00:16:06.715Z,98667.58
2024-05-09T00:18:37.983Z,98666.40
2024-05-09T00:21:10.559Z,98663.63
2024-05-09T00:23:42.184Z,98664.86
2024-05-09T00:26:17.936Z,98668.27
2024-05-09T00:28:49.297Z,98670.98
2024-05-09T00:31:20.626Z,98673.34
2024-05-09T00:33:51.675Z,98677.05
2024-05-09T00:36:22.926Z,98680.73
2024-05-09T00:38:53.871Z,98679.86
2024-05-09T00:41:25.103Z,98682.16
2024-05-09T00:43:56.117Z,98676.18
2024-05-09T00:46:27.933Z,98674.88
2024-05-09T00:48:59.703Z,98678.04
2024-05-09T00:51:30.817Z,98677.06
2024-05-09T00:54:02.468Z,98679.00
2024-05-09T00:56:35.866Z,98685.47
2024-05-09T00:59:07.312Z,98682.56
2024-05-09T01:01:38.721Z,98684.02
2024-05-09T01:04:10.824Z,98683.63
2024-05-09T01:06:42.337Z,98684.27
2024-05-09T01:09:13.403Z,98678.98
2024-05-09T01:11:44.698Z,98680.34
2024-05-09T01:14:16.053Z,98679.90
2024-05-09T01:16:47.442Z,98682.84
2024-05-09T01:19:26.991Z,98676.45
2024-05-09T01:21:58.219Z,98676.66
2024-05-09T01:24:29.353Z,98675.95
2024-05-09T01:27:00.644Z,98671.85
2024-05-09T01:29:31.807Z,98674.66
2024-05-09T01:32:04.459Z,98675.76
2024-05-09T01:34:35.622Z,98677.17
2024-05-09T01:37:06.699Z,98677.92
2024-05-09T01:39:37.764Z,98678.09
2024-05-09T01:42:08.974Z,98685.63
2024-05-09T01:44:39.895Z,98684.11
2024-05-09T01:47:11.376Z,98687.29
2024-05-09T01:49:41.285Z,98687.75
2024-05-09T01:52:12.278Z,98688.70
2024-05-09T01:54:43.633Z,98688.71
2024-05-09T01:57:15.020Z,98690.80
2024-05-09T01:59:46.109Z,98688.54
2024-05-09T02:02:17.566Z,98686.60
2024-05-09T02:04:48.191Z,98685.69
2024-05-09T02:07:19.427Z,98681.50
2024-05-09T02:09:53.638Z,98683.66
2024-05-09T02:12:24.994Z,98689.95
2024-05-09T02:14:54.917Z,98687.90
2024-05-09T02:17:26.145Z,98689.48
2024-05-09T02:19:57.379Z,98687.65
2024-05-09T02:22:28.603Z,98687.95
2024-05-09T02:24:59.684Z,98688.56
2024-05-09T02:27:30.988Z,98685.39
2024-05-09T02:30:01.993Z,98685.25
2024-05-09T02:32:33.343Z,98683.61
2024-05-09T02:35:04.501Z,98683.58
2024-05-09T02:37:35.792Z,98685.63
2024-05-09T02:40:11.725Z,98686.16
2024-05-09T02:42:45.854Z,98689.29
2024-05-09T02:45:17.098Z,98693.36
2024-05-09T02:47:48.570Z,98693.79
2024-05-09T02:50:26.575Z,98689.90
2024-05-09T02:53:05.705Z,98690.40
2024-05-09T02:55:37.173Z,98690.84
2024-05-09T02:58:08.686Z,98694.33
2024-05-09T03:00:41.318Z,98697.89
2024-05-09T03:03:15.623Z,98693.77
2024-05-09T03:05:49.262Z,98692.88
2024-05-09T03:08:20.549Z,98692.54
2024-05-09T03:10:51.527Z,98690.27
2024-05-09T03:13:22.737Z,98693.84
2024-05-09T03:15:53.794Z,98692.63
2024-05-09T03:18:24.998Z,98694.38
2024-05-09T03:20:56.221Z,98695.03
2024-05-09T03:23:27.190Z,98689.48
2024-05-09T03:25:58.566Z,98686.25
2024-05-09T03:28:29.836Z,98690.23
2024-05-09T03:31:01.023Z,98688.15
2024-05-09T03:33:32.332Z,98692.60
2024-05-09T03:36:09.034Z,98695.46
2024-05-09T03:38:41.934Z,98692.34
2024-05-09T03:41:14.580Z,98694.86
2024-05-09T03:43:47.158Z,98694.08
2024-05-09T03:46:18.198Z,98695.20
2024-05-09T03:48:49.564Z,98694.55
2024-05-09T03:51:20.715Z,98691.50
2024-05-09T03:53:51.884Z,98692.58
2024-05-09T03:56:23.239Z,98688.73
2024-05-09T03:58:55.912Z,98687.90
2024-05-09T04:01:29.640Z,98687.77
2024-05-09T04:04:00.781Z,98689.54
2024-05-09T04:06:32.000Z,98692.23
2024-05-09T04:09:03.553Z,98694.36
2024-05-09T04:11:33.255Z,98698.20
2024-05-09T04:14:04.433Z,98696.70
2024-05-09T04:16:35.613Z,98699.30
2024-05-09T04:19:07.751Z,98698.09
2024-05-09T04:21:38.989Z,98700.29
2024-05-09T04:24:10.254Z,98703.73
2024-05-09T04:26:41.229Z,98706.54
2024-05-09T04:29:12.323Z,98701.75
2024-05-09T04:31:43.652Z,98703.70
2024-05-09T04:34:14.900Z,98701.95
2024-05-09T04:36:46.184Z,98705.02
2024-05-09T04:39:17.368Z,98703.80
2024-05-09T04:41:48.501Z,98703.70
2024-05-09T04:44:19.581Z,98703.91
2024-05-09T04:46:50.855Z,98708.97
2024-05-09T04:49:21.951Z,98710.94
2024-05-09T04:51:53.227Z,98708.37
2024-05-09T04:54:33.694Z,98712.66
2024-05-09T04:57:07.989Z,98710.28
2024-05-09T04:59:37.845Z,98707.01
2024-05-09T05:02:09.796Z,98710.80
2024-05-09T05:04:40.830Z,98712.45
2024-05-09T05:07:12.183Z,98711.57
2024-05-09T05:09:43.248Z,98711.80
2024-05-09T05:12:28.650Z,98710.91
2024-05-09T05:14:59.769Z,98714.00
2024-05-09T05:17:31.266Z,98716.70
2024-05-09T05:20:01.219Z,98716.52
2024-05-09T05:22:32.984Z,98717.38
2024-05-09T05:25:04.666Z,98718.23
2024-05-09T05:27:35.719Z,98721.64
2024-05-09T05:30:14.646Z,98721.90
2024-05-09T05:32:48.956Z,98724.62
2024-05-09T05:35:20.131Z,98725.50
2024-05-09T05:37:51.329Z,98726.41
2024-05-09T05:40:32.042Z,98730.39
2024-05-09T05:43:08.184Z,98721.71
2024-05-09T05:45:39.563Z,98724.89
2024-05-09T05:48:09.774Z,98727.09
2024-05-09T05:50:41.501Z,98724.17
2024-05-09T05:53:11.322Z,98724.10
2024-05-09T05:55:43.232Z,98724.17
2024-05-09T05:58:15.229Z,98722.36
2024-05-09T06:00:46.422Z,98724.16
2024-05-09T06:03:17.872Z,98723.34
2024-05-09T06:05:49.242Z,98723.33
2024-05-09T06:08:20.860Z,98723.30
2024-05-09T06:10:51.997Z,98723.55
2024-05-09T06:13:23.030Z,98721.14
2024-05-09T06:15:54.382Z,98718.23
2024-05-09T06:18:24.558Z,98717.60
2024-05-09T06:20:55.849Z,98719.39
2024-05-09T06:23:26.956Z,98717.92
2024-05-09T06:25:58.139Z,98716.30
2024-05-09T06:28:29.585Z,98715.38
2024-05-09T06:30:59.332Z,98715.54
2024-05-09T06:33:30.662Z,98716.49
2024-05-09T06:36:01.885Z,98713.75
2024-05-09T06:38:33.556Z,98715.27
2024-05-09T06:41:05.815Z,98710.58
2024-05-09T06:43:38.011Z,98708.31
2024-05-09T06:46:09.119Z,98705.83
2024-05-09T06:48:40.628Z,98701.46
2024-05-09T06:51:11.792Z,98700.61
2024-05-09T06:53:43.139Z,98699.52
2024-05-09T06:56:13.160Z,98701.42
2024-05-09T06:58:44.418Z,98699.68
2024-05-09T07:01:15.655Z,98697.60
2024-05-09T07:03:47.110Z,98702.47
2024-05-09T07:06:18.459Z,98702.69
2024-05-09T07:08:48.793Z,98700.20
2024-05-09T07:11:21.559Z,98702.26
2024-05-09T07:13:53.568Z,98701.98
2024-05-09T07:16:24.808Z,98705.64
2024-05-09T07:18:56.388Z,98702.01
2024-05-09T07:21:27.566Z,98700.65
2024-05-09T07:23:58.872Z,98704.13
2024-05-09T07:26:30.256Z,98705.38
2024-05-09T07:29:01.702Z,98709.61
2024-05-09T07:31:32.996Z,98707.30
2024-05-09T07:34:02.836Z,98709.45
2024-05-09T07:36:33.895Z,98703.43
2024-05-09T07:39:05.419Z,98703.80
2024-05-09T07:41:36.944Z,98704.80
2024-05-09T07:44:08.312Z,98705.55
2024-05-09T07:47:47.646Z,98709.33
2024-05-09T07:54:41.336Z,98706.25
2024-05-09T07:57:11.280Z,98700.34
2024-05-09T07:59:42.496Z,98705.61
2024-05-09T08:02:13.718Z,98703.11
2024-05-09T08:04:44.989Z,98700.32
2024-05-09T08:07:15.187Z,98705.81
2024-05-09T08:09:47.432Z,98704.49
2024-05-09T08:12:18.534Z,98708.21
2024-05-09T08:14:48.294Z,98707.34
2024-05-09T08:17:19.408Z,98704.89
2024-05-09T08:19:49.062Z,98700.73
2024-05-09T08:22:20.291Z,98701.64
2024-05-09T08:24:50.140Z,98695.34
2024-05-09T08:27:21.374Z,98697.77
2024-05-09T08:29:51.102Z,98698.37
2024-05-09T08:32:23.120Z,98695.25
2024-05-09T08:34:54.057Z,98701.83
2024-05-09T08:37:29.423Z,98702.33
2024-05-09T08:40:04.143Z,98703.48
2024-05-09T08:42:39.021Z,98700.90
2024-05-09T08:45:13.242Z,98698.38
2024-05-09T08:47:45.967Z,98699.67
2024-05-09T08:50:28.917Z,98706.77
2024-05-09T08:53:07.733Z,98717.73
2024-05-09T08:55:42.041Z,98714.83
2024-05-09T08:58:17.803Z,98713.41
2024-05-09T09:00:49.780Z,98713.37
2024-05-09T09:03:27.582Z,98710.54
2024-05-09T09:06:02.895Z,98714.48
2024-05-09T09:08:34.212Z,98709.50
2024-05-09T09:11:04.394Z,98707.58
2024-05-09T09:13:35.565Z,98702.09
2024-05-09T09:16:06.418Z,98705.29
2024-05-09T09:18:38.004Z,98703.55
2024-05-09T09:21:13.347Z,98707.17
2024-05-09T09:23:45.452Z,98708.45
2024-05-09T09:26:18.902Z,98703.13
2024-05-09T09:28:50.126Z,98703.57
2024-05-09T09:31:21.822Z,98706.14
2024-05-09T09:33:53.300Z,98708.73
2024-05-09T09:36:24.692Z,98713.23
2024-05-09T09:38:55.520Z,98717.41
2024-05-09T09:41:30.425Z,98711.35
2024-05-09T09:44:03.708Z,98705.39
2024-05-09T09:46:35.448Z,98705.34
2024-05-09T09:49:07.295Z,98704.09
2024-05-09T09:51:43.333Z,98699.44
2024-05-09T09:54:15.736Z,98696.59
2024-05-09T09:56:48.523Z,98694.23
2024-05-09T09:59:22.039Z,98696.71
2024-05-09T10:01:53.261Z,98693.30
2024-05-09T10:04:24.811Z,98692.91
2024-05-09T10:07:02.130Z,98691.98
2024-05-09T10:09:34.344Z,98692.27
2024-05-09T10:12:13.352Z,98692.78
2024-05-09T10:14:50.767Z,98694.57
2024-05-09T10:17:22.129Z,98697.23
2024-05-09T10:20:11.713Z,98700.30
2024-05-09T10:22:50.543Z,98694.72
2024-05-09T10:25:23.380Z,98693.66
2024-05-09T10:27:57.860Z,98693.88
2024-05-09T10:30:34.263Z,98695.36
2024-05-09T10:49:45.630Z,98681.15
2024-05-09T10:52:20.499Z,98677.77
2024-05-09T10:54:54.000Z,98676.69
2024-05-09T10:57:27.010Z,98675.98
2024-05-09T11:00:00.752Z,98676.92
2024-05-09T11:02:33.024Z,98669.29
2024-05-09T11:05:06.185Z,98663.71
2024-05-09T11:07:37.732Z,98663.86
2024-05-09T11:10:14.488Z,98667.61
2024-05-09T11:12:47.021Z,98665.98
2024-05-09T11:15:18.762Z,98663.26
2024-05-09T11:17:50.411Z,98664.73
2024-05-09T11:20:29.100Z,98662.41
2024-05-09T11:23:01.423Z,98663.50
2024-05-09T11:25:33.809Z,98659.08
2024-05-09T11:28:05.833Z,98654.50
2024-05-09T11:30:37.584Z,98659.20
2024-05-09T11:33:12.093Z,98657.52
2024-05-09T11:35:43.790Z,98655.94
2024-05-09T11:38:15.359Z,98651.64
2024-05-09T11:40:46.808Z,98653.95
2024-05-09T11:43:18.454Z,98648.80
2024-05-09T11:45:50.251Z,98640.73
2024-05-09T11:48:22.135Z,98648.88
2024-05-09T11:50:54.930Z,98641.33
2024-05-09T11:53:26.759Z,98635.48
2024-05-09T11:55:58.112Z,98631.91
2024-05-09T11:58:34.082Z,98632.80
2024-05-09T12:01:05.847Z,98633.46
2024-05-09T12:03:38.513Z,98632.55
2024-05-09T12:06:10.039Z,98628.83
2024-05-09T12:08:41.897Z,98628.36
2024-05-09T12:11:14.128Z,98628.13
2024-05-09T12:13:45.651Z,98627.08
2024-05-09T12:16:17.245Z,98623.50
2024-05-09T12:18:48.683Z,98626.89
2024-05-09T12:21:20.498Z,98622.30
2024-05-09T12:23:52.116Z,98617.11
2024-05-09T12:26:23.591Z,98617.56
2024-05-09T12:28:54.965Z,98617.27
2024-05-09T12:31:26.812Z,98619.23
2024-05-09T12:34:00.116Z,98614.30
2024-05-09T12:36:31.754Z,98614.38
2024-05-09T12:39:05.714Z,98608.52
2024-05-09T12:41:37.397Z,98607.81
2024-05-09T12:44:08.766Z,98600.86
2024-05-09T12:46:40.156Z,98599.05
2024-05-09T12:49:13.246Z,98596.42
2024-05-09T12:51:45.688Z,98593.17
2024-05-09T12:54:16.793Z,98591.41
2024-05-09T12:56:48.196Z,98586.37
2024-05-09T12:59:19.829Z,98584.88
2024-05-09T13:01:51.452Z,98585.23
2024-05-09T13:04:23.674Z,98578.39
2024-05-09T13:06:55.219Z,98577.39
2024-05-09T13:09:26.708Z,98577.08
2024-05-09T13:11:58.148Z,98577.17
2024-05-09T13:14:29.627Z,98578.75
2024-05-09T13:17:01.025Z,98579.92
2024-05-09T13:19:32.481Z,98575.16
2024-05-09T13:22:04.297Z,98574.36
2024-05-09T13:24:35.672Z,98571.19
2024-05-09T13:27:07.469Z,98569.77
2024-05-09T13:29:41.095Z,98564.41
2024-05-09T13:32:14.399Z,98562.55
2024-05-09T13:34:45.968Z,98563.73
2024-05-09T13:37:17.663Z,98558.48
2024-05-09T13:39:49.305Z,98553.40
2024-05-09T13:42:20.740Z,98549.23
2024-05-09T13:44:52.295Z,98552.06
2024-05-09T13:47:24.273Z,98549.75
2024-05-09T13:49:56.208Z,98548.75
2024-05-09T13:52:27.757Z,98545.12
2024-05-09T13:54:59.593Z,98545.17
2024-05-09T13:57:31.513Z,98541.02
2024-05-09T14:00:06.811Z,98539.61
2024-05-09T14:02:43.996Z,98541.00
2024-05-09T14:05:16.037Z,98534.46
2024-05-09T14:07:47.938Z,98536.52
2024-05-09T14:10:23.489Z,98531.90
2024-05-09T14:13:01.035Z,98529.45
2024-05-09T14:15:32.740Z,98529.75
2024-05-09T14:18:04.352Z,98532.42
2024-05-09T14:20:35.594Z,98527.44
2024-05-09T14:23:08.163Z,98525.19
2024-05-09T14:25:42.766Z,98522.18
2024-05-09T14:28:15.384Z,98519.96
2024-05-09T14:30:47.183Z,98519.25
2024-05-09T14:33:23.504Z,98521.98
2024-05-09T14:35:55.483Z,98520.11
2024-05-09T14:38:27.413Z,98519.37
2024-05-09T14:40:58.861Z,98512.48
2024-05-09T14:43:30.318Z,98517.34
2024-05-09T14:46:01.707Z,98509.92
2024-05-09T14:48:33.479Z,98506.05
2024-05-09T14:51:05.286Z,98508.38
2024-05-09T14:53:36.837Z,98502.23
2024-05-09T14:56:09.289Z,98504.25
2024-05-09T14:58:40.865Z,98501.33
2024-05-09T15:01:12.288Z,98502.10
2024-05-09T15:03:44.396Z,98503.90
2024-05-09T15:06:17.805Z,98501.38
2024-05-09T15:08:57.147Z,98499.50
2024-05-09T15:11:28.404Z,98493.05
2024-05-09T15:14:00.104Z,98493.08
2024-05-09T15:16:31.941Z,98493.53
2024-05-09T15:19:03.666Z,98493.20
2024-05-09T15:21:35.683Z,98491.58
2024-05-09T15:24:08.083Z,98494.17
2024-05-09T15:26:40.041Z,98495.80
2024-05-09T15:29:11.376Z,98492.91
2024-05-09T15:31:42.988Z,98485.94
2024-05-09T15:34:14.293Z,98484.16
2024-05-09T15:36:47.954Z,98484.66
2024-05-09T15:39:19.855Z,98486.46
2024-05-09T15:41:52.925Z,98483.23
2024-05-09T15:44:26.236Z,98481.76
2024-05-09T15:46:57.553Z,98480.52
2024-05-09T15:49:29.218Z,98477.59
2024-05-09T15:52:00.972Z,98473.64
2024-05-09T15:54:32.281Z,98475.33
2024-05-09T15:57:02.401Z,98476.77
2024-05-09T15:59:33.491Z,98475.17
2024-05-09T16:02:03.721Z,98473.41
2024-05-09T16:04:35.349Z,98470.67
2024-05-09T16:07:06.922Z,98472.27
2024-05-09T16:09:38.748Z,98471.40
2024-05-09T16:12:10.447Z,98468.77
2024-05-09T16:14:41.837Z,98467.68
2024-05-09T16:17:14.100Z,98468.39
2024-05-09T16:19:45.580Z,98468.79
2024-05-09T16:22:17.358Z,98470.04
2024-05-09T16:24:49.020Z,98469.20
2024-05-09T16:27:19.146Z,98470.96
2024-05-09T16:29:50.825Z,98468.70
2024-05-09T16:32:22.260Z,98468.73
2024-05-09T16:34:53.850Z,98469.47
2024-05-09T16:37:27.522Z,98470.53
2024-05-09T16:40:00.292Z,98467.16
2024-05-09T16:42:32.919Z,98471.92
2024-05-09T16:45:04.309Z,98469.78
2024-05-09T16:47:36.093Z,98468.80
2024-05-09T16:50:10.761Z,98465.84
2024-05-09T16:52:44.557Z,98465.15
2024-05-09T16:55:16.528Z,98467.31
2024-05-09T16:57:48.125Z,98464.15
2024-05-09T17:00:30.905Z,98466.35
2024-05-09T17:03:11.935Z,98467.17
2024-05-09T17:05:45.232Z,98463.77
2024-05-09T17:08:19.528Z,98466.20
2024-05-09T17:10:51.292Z,98464.36
2024-05-09T17:13:23.475Z,98463.77
2024-05-09T17:15:55.759Z,98460.75
2024-05-09T17:18:28.088Z,98460.36
2024-05-09T17:20:59.776Z,98459.30
2024-05-09T17:23:34.348Z,98459.38
2024-05-09T17:26:06.809Z,98458.64
2024-05-09T17:28:38.645Z,98459.12
2024-05-09T17:31:10.311Z,98464.33
2024-05-09T17:33:42.486Z,98470.77
2024-05-09T17:36:13.975Z,98473.45
2024-05-09T17:38:43.947Z,98475.71
2024-05-09T17:41:15.290Z,98475.27
2024-05-09T17:43:46.851Z,98474.67
2024-05-09T17:46:18.244Z,98472.21
2024-05-09T17:48:49.682Z,98469.62
2024-05-09T17:51:20.870Z,98470.35
2024-05-09T17:53:52.335Z,98475.92
2024-05-09T17:56:23.681Z,98477.65
2024-05-09T17:58:53.763Z,98480.08
2024-05-09T18:01:25.552Z,98483.02
2024-05-09T18:03:56.974Z,98484.20
2024-05-09T18:06:28.902Z,98486.95
2024-05-09T18:09:00.212Z,98486.53
2024-05-09T18:11:30.581Z,98487.94
2024-05-09T18:14:01.917Z,98487.34
2024-05-09T18:16:33.505Z,98490.77
2024-05-09T18:19:05.424Z,98498.73
2024-05-09T18:21:37.028Z,98501.85
2024-05-09T18:24:09.958Z,98502.42
2024-05-09T18:26:41.844Z,98501.33
2024-05-09T18:29:13.207Z,98508.54
2024-05-09T18:31:44.810Z,98509.87
2024-05-09T18:34:16.278Z,98514.38
2024-05-09T18:36:47.831Z,98515.42
2024-05-09T18:39:19.301Z,98518.59
2024-05-09T18:41:49.748Z,98521.18
2024-05-09T18:44:21.185Z,98522.49
2024-05-09T18:46:52.836Z,98522.27
2024-05-09T18:49:24.335Z,98521.80
2024-05-09T18:51:55.907Z,98527.48
2024-05-09T18:54:25.865Z,98528.00
2024-05-09T18:56:56.991Z,98529.54
2024-05-09T18:59:28.357Z,98528.34
2024-05-09T19:02:00.005Z,98534.42
2024-05-09T19:04:32.279Z,98537.66
2024-05-09T19:07:04.494Z,98541.20
2024-05-09T19:09:36.202Z,98544.11
2024-05-09T19:12:09.352Z,98547.91
2024-05-09T19:14:40.668Z,98551.45
2024-05-09T19:17:10.618Z,98554.98
2024-05-09T19:19:41.865Z,98556.33
2024-05-09T19:22:13.058Z,98557.60
2024-05-09T19:24:44.518Z,98559.07
2024-05-09T19:27:14.469Z,98560.73
2024-05-09T19:29:46.015Z,98559.59
2024-05-09T19:32:16.138Z,98563.65
2024-05-09T19:34:47.767Z,98562.18
2024-05-09T19:37:17.743Z,98565.17
2024-05-09T19:39:48.960Z,98567.30
2024-05-09T19:42:20.284Z,98565.92
2024-05-09T19:44:51.522Z,98569.04
2024-05-09T19:47:22.833Z,98568.86
2024-05-09T19:49:54.521Z,98564.99
2024-05-09T19:52:26.882Z,98568.47
2024-05-09T19:54:58.430Z,98566.46
2024-05-09T19:57:30.319Z,98568.52
2024-05-09T20:00:01.724Z,98571.52
2024-05-09T20:02:31.845Z,98571.87
2024-05-09T20:05:04.130Z,98574.09
2024-05-09T20:07:37.402Z,98578.94
2024-05-09T20:10:16.606Z,98575.77
2024-05-09T20:12:54.733Z,98577.67
2024-05-09T20:15:26.304Z,98579.75
2024-05-09T20:17:57.669Z,98582.65
2024-05-09T20:20:35.563Z,98583.38
2024-05-09T20:23:10.990Z,98582.96
2024-05-09T20:25:43.352Z,98585.64
2024-05-09T20:28:15.461Z,98582.22
2024-05-09T20:30:46.853Z,98581.06
2024-05-09T20:33:18.481Z,98580.73
2024-05-09T20:35:48.464Z,98579.69
2024-05-09T20:38:19.777Z,98576.02
2024-05-09T20:40:51.205Z,98574.58
2024-05-09T20:43:21.421Z,98574.66
2024-05-09T20:45:53.300Z,98571.58
2024-05-09T20:48:24.824Z,98568.48
2024-05-09T20:50:54.976Z,98567.17
2024-05-09T20:53:26.600Z,98566.36
2024-05-09T20:55:56.428Z,98568.30
2024-05-09T20:58:28.853Z,98565.70
2024-05-09T21:01:01.206Z,98568.89
2024-05-09T21:03:35.273Z,98569.90
2024-05-09T21:06:07.560Z,98564.98
2024-05-09T21:08:39.325Z,98570.72
2024-05-09T21:11:10.947Z,98568.58
2024-05-09T21:13:42.695Z,98570.80
2024-05-09T21:16:14.513Z,98569.92
2024-05-09T21:18:46.319Z,98573.20
2024-05-09T21:21:17.780Z,98573.29
2024-05-09T21:23:49.225Z,98574.01
2024-05-09T21:26:23.521Z,98572.77
2024-05-09T21:28:55.418Z,98571.48
2024-05-09T21:31:26.872Z,98573.92
2024-05-09T21:33:57.291Z,98573.14
2024-05-09T21:36:28.758Z,98577.02
2024-05-09T21:39:00.107Z,98579.20
2024-05-09T21:41:31.654Z,98578.96
2024-05-09T21:44:02.957Z,98579.59
2024-05-09T21:46:34.409Z,98578.58
2024-05-09T21:49:04.523Z,98578.71
2024-05-09T21:51:36.123Z,98581.21
2024-05-09T21:54:07.410Z,98580.64
2024-05-09T21:56:38.580Z,98580.95
2024-05-09T21:59:10.254Z,98587.16
2024-05-09T22:01:41.520Z,98582.92
2024-05-09T22:04:12.964Z,98583.39
2024-05-09T22:06:44.833Z,98586.17
2024-05-09T22:09:16.375Z,98579.29
2024-05-09T22:11:48.062Z,98580.31
2024-05-09T22:14:20.963Z,98578.39
2024-05-09T22:16:52.314Z,98576.58
2024-05-09T22:19:23.476Z,98576.79
2024-05-09T22:21:55.403Z,98577.29
2024-05-09T22:24:27.172Z,98576.48
2024-05-09T22:26:57.092Z,98577.07
2024-05-09T22:29:28.935Z,98574.08
2024-05-09T22:32:00.225Z,98573.98
2024-05-09T22:34:32.215Z,98572.08
2024-05-09T22:37:03.932Z,98570.69
2024-05-09T22:39:35.482Z,98567.39
2024-05-09T22:42:06.179Z,98570.80
2024-05-09T22:44:37.905Z,98576.38
2024-05-09T22:47:09.519Z,98575.00
2024-05-09T22:49:40.999Z,98574.14
2024-05-09T22:52:12.597Z,98572.42
2024-05-09T22:54:45.000Z,98574.37
2024-05-09T22:57:16.429Z,98570.03
2024-05-09T22:59:48.089Z,98567.13
2024-05-09T23:02:19.453Z,98568.45
2024-05-09T23:04:49.650Z,98567.23
2024-05-09T23:07:21.142Z,98569.48
2024-05-09T23:09:52.760Z,98572.06
2024-05-09T23:12:22.803Z,98568.74
2024-05-09T23:14:54.278Z,98568.05
2024-05-09T23:17:25.804Z,98563.73
2024-05-09T23:19:55.842Z,98565.34
2024-05-09T23:22:27.113Z,98562.58
2024-05-09T23:24:58.556Z,98565.96
2024-05-09T23:27:28.743Z,98568.61
2024-05-09T23:30:00.279Z,98567.96
2024-05-09T23:32:30.621Z,98564.46
2024-05-09T23:35:02.416Z,98561.47
2024-05-09T23:37:32.492Z,98561.07
2024-05-09T23:40:06.996Z,98558.40
2024-05-09T23:42:42.663Z,98557.59
2024-05-09T23:45:14.011Z,98554.96
2024-05-09T23:47:45.493Z,98553.13
2024-05-09T23:50:20.551Z,98554.06
2024-05-09T23:52:55.613Z,98550.73
2024-05-09T23:55:27.004Z,98547.52
2024-05-09T23:57:58.367Z,98548.55
